Terminal Aerodrome Forecast
Issued by NWS

Home | Current Version | Previous Version | Text Only | Print | Product List | Glossary On
Versions: 1 2 3 4 5 6 7 8 9 10 11 12 13
000
FTAK31 PAJN 260527
TAFAGY
TAF
PAGY 260527Z 2606/2706 21015G24KT P6SM VCSH OVC050
     FM260800 21012KT P6SM VCSH SCT030 OVC050
     FM261200 21008KT P6SM -RA FEW015 OVC030
     FM262100 21014G26KT 6SM -RA SCT015 OVC025
      AMD LTD TO CLD VIS AND WIND=

USA.gov is the U.S. government's official web portal to all federal, state and local government web resources and services.